sensor_id;sensor_type;location;lat;lon;timestamp;pressure;altitude;pressure_sealevel;temperature;humidity
76603;BME280;65075;48.390;17.598;2023-07-09T00:00:46;100177.53;;;20.92;50.54
76603;BME280;65075;48.390;17.598;2023-07-09T00:03:12;100154.41;;;19.87;53.47
76603;BME280;65075;48.390;17.598;2023-07-09T00:05:38;100186.31;;;20.77;51.15
76603;BME280;65075;48.390;17.598;2023-07-09T00:08:04;100185.75;;;21.06;50.13
76603;BME280;65075;48.390;17.598;2023-07-09T00:10:29;100179.97;;;20.85;51.31
76603;BME280;65075;48.390;17.598;2023-07-09T00:12:55;100178.69;;;20.91;50.43
76603;BME280;65075;48.390;17.598;2023-07-09T00:15:20;100170.28;;;21.48;48.96
76603;BME280;65075;48.390;17.598;2023-07-09T00:17:46;100179.78;;;23.03;46.15
76603;BME280;65075;48.390;17.598;2023-07-09T00:20:18;100181.69;;;23.61;44.87
76603;BME280;65075;48.390;17.598;2023-07-09T00:22:44;100180.75;;;23.07;45.25
76603;BME280;65075;48.390;17.598;2023-07-09T00:25:21;100175.41;;;23.02;45.27
76603;BME280;65075;48.390;17.598;2023-07-09T00:27:47;100154.28;;;22.72;45.34
76603;BME280;65075;48.390;17.598;2023-07-09T00:30:22;100176.78;;;23.58;44.81
76603;BME280;65075;48.390;17.598;2023-07-09T00:32:49;100182.09;;;23.01;45.75
76603;BME280;65075;48.390;17.598;2023-07-09T00:35:14;100184.94;;;23.63;44.03
76603;BME280;65075;48.390;17.598;2023-07-09T00:37:42;100179.72;;;22.91;44.89
76603;BME280;65075;48.390;17.598;2023-07-09T00:40:18;100187.34;;;23.23;44.72
76603;BME280;65075;48.390;17.598;2023-07-09T00:42:46;100193.09;;;22.98;44.54
76603;BME280;65075;48.390;17.598;2023-07-09T00:45:19;100182.91;;;23.52;43.08
76603;BME280;65075;48.390;17.598;2023-07-09T00:48:00;100183.28;;;23.21;44.23
76603;BME280;65075;48.390;17.598;2023-07-09T00:50:39;100191.19;;;22.90;45.61
76603;BME280;65075;48.390;17.598;2023-07-09T00:53:26;100176.34;;;23.06;44.36
76603;BME280;65075;48.390;17.598;2023-07-09T00:56:04;100188.03;;;22.62;45.69
76603;BME280;65075;48.390;17.598;2023-07-09T00:58:32;100183.25;;;23.00;43.90
76603;BME280;65075;48.390;17.598;2023-07-09T01:01:04;100196.72;;;22.52;45.27
76603;BME280;65075;48.390;17.598;2023-07-09T01:03:36;100187.91;;;23.37;43.67
76603;BME280;65075;48.390;17.598;2023-07-09T01:06:03;100188.41;;;23.60;42.85
76603;BME280;65075;48.390;17.598;2023-07-09T01:08:33;100181.66;;;24.15;42.06
76603;BME280;65075;48.390;17.598;2023-07-09T01:11:00;100190.59;;;24.08;41.65
76603;BME280;65075;48.390;17.598;2023-07-09T01:13:27;100190.50;;;23.63;43.73
76603;BME280;65075;48.390;17.598;2023-07-09T01:15:55;100210.13;;;21.69;47.36
76603;BME280;65075;48.390;17.598;2023-07-09T01:18:21;100208.47;;;22.19;46.50
76603;BME280;65075;48.390;17.598;2023-07-09T01:20:48;100200.91;;;23.04;45.04
76603;BME280;65075;48.390;17.598;2023-07-09T01:23:13;100190.47;;;22.26;47.26
76603;BME280;65075;48.390;17.598;2023-07-09T01:25:51;100183.50;;;21.85;48.33
76603;BME280;65075;48.390;17.598;2023-07-09T01:28:20;100201.00;;;22.87;44.60
76603;BME280;65075;48.390;17.598;2023-07-09T01:30:47;100171.34;;;22.62;44.73
76603;BME280;65075;48.390;17.598;2023-07-09T01:33:14;100201.09;;;22.70;45.23
76603;BME280;65075;48.390;17.598;2023-07-09T01:35:40;100203.13;;;21.80;47.12
76603;BME280;65075;48.390;17.598;2023-07-09T01:38:08;100189.91;;;22.41;45.30
76603;BME280;65075;48.390;17.598;2023-07-09T01:40:34;100208.47;;;22.19;46.51
76603;BME280;65075;48.390;17.598;2023-07-09T01:43:02;100192.97;;;22.94;44.68
76603;BME280;65075;48.390;17.598;2023-07-09T01:45:33;100182.69;;;21.59;46.90
76603;BME280;65075;48.390;17.598;2023-07-09T01:47:59;100201.88;;;22.79;44.69
76603;BME280;65075;48.390;17.598;2023-07-09T01:50:25;100155.19;;;22.00;45.69
76603;BME280;65075;48.390;17.598;2023-07-09T01:52:53;100203.13;;;23.19;43.92
76603;BME280;65075;48.390;17.598;2023-07-09T01:55:20;100214.78;;;23.63;42.38
76603;BME280;65075;48.390;17.598;2023-07-09T01:57:46;100195.66;;;23.11;42.79
76603;BME280;65075;48.390;17.598;2023-07-09T02:00:15;100209.09;;;22.80;44.68
76603;BME280;65075;48.390;17.598;2023-07-09T02:02:43;100197.31;;;23.54;43.31
76603;BME280;65075;48.390;17.598;2023-07-09T02:05:11;100206.44;;;23.63;42.39
76603;BME280;65075;48.390;17.598;2023-07-09T02:07:38;100201.94;;;23.50;43.28
76603;BME280;65075;48.390;17.598;2023-07-09T02:10:04;100189.91;;;23.58;42.95
76603;BME280;65075;48.390;17.598;2023-07-09T02:12:30;100198.84;;;23.84;42.11
76603;BME280;65075;48.390;17.598;2023-07-09T02:14:56;100193.59;;;23.20;43.38
76603;BME280;65075;48.390;17.598;2023-07-09T02:17:21;100208.72;;;23.81;41.83
76603;BME280;65075;48.390;17.598;2023-07-09T02:19:46;100208.59;;;22.78;44.03
76603;BME280;65075;48.390;17.598;2023-07-09T02:22:13;100208.34;;;22.54;45.08
76603;BME280;65075;48.390;17.598;2023-07-09T02:24:38;100218.59;;;22.15;46.10
76603;BME280;65075;48.390;17.598;2023-07-09T02:27:06;100221.22;;;21.69;47.34
76603;BME280;65075;48.390;17.598;2023-07-09T02:29:33;100221.41;;;21.64;47.05
76603;BME280;65075;48.390;17.598;2023-07-09T02:32:00;100226.78;;;22.03;46.72
76603;BME280;65075;48.390;17.598;2023-07-09T02:34:27;100227.81;;;20.99;49.08
76603;BME280;65075;48.390;17.598;2023-07-09T02:36:54;100199.91;;;20.96;48.89
76603;BME280;65075;48.390;17.598;2023-07-09T02:39:21;100229.88;;;21.33;48.67
76603;BME280;65075;48.390;17.598;2023-07-09T02:41:47;100227.03;;;22.45;44.99
76603;BME280;65075;48.390;17.598;2023-07-09T02:44:13;100222.91;;;21.87;46.65
76603;BME280;65075;48.390;17.598;2023-07-09T02:46:39;100220.25;;;21.82;46.45
76603;BME280;65075;48.390;17.598;2023-07-09T02:49:08;100216.19;;;21.71;47.30
76603;BME280;65075;48.390;17.598;2023-07-09T02:51:34;100227.16;;;21.93;46.59
76603;BME280;65075;48.390;17.598;2023-07-09T02:54:01;100228.50;;;20.57;49.39
76603;BME280;65075;48.390;17.598;2023-07-09T02:56:28;100225.28;;;22.32;46.15
76603;BME280;65075;48.390;17.598;2023-07-09T02:58:53;100237.38;;;22.27;46.63
76603;BME280;65075;48.390;17.598;2023-07-09T03:01:19;100243.63;;;22.07;45.91
76603;BME280;65075;48.390;17.598;2023-07-09T03:03:51;100247.50;;;21.20;48.15
76603;BME280;65075;48.390;17.598;2023-07-09T03:06:19;100241.84;;;20.55;50.45
76603;BME280;65075;48.390;17.598;2023-07-09T03:08:45;100241.84;;;21.77;47.54
76603;BME280;65075;48.390;17.598;2023-07-09T03:11:12;100240.78;;;21.13;47.97
76603;BME280;65075;48.390;17.598;2023-07-09T03:13:38;100241.50;;;21.95;47.30
76603;BME280;65075;48.390;17.598;2023-07-09T03:16:04;100243.78;;;21.67;47.91
76603;BME280;65075;48.390;17.598;2023-07-09T03:18:30;100252.63;;;21.95;46.23
76603;BME280;65075;48.390;17.598;2023-07-09T03:20:56;100252.47;;;21.92;47.03
76603;BME280;65075;48.390;17.598;2023-07-09T03:23:22;100251.59;;;22.34;45.19
76603;BME280;65075;48.390;17.598;2023-07-09T03:25:47;100244.56;;;21.25;47.75
76603;BME280;65075;48.390;17.598;2023-07-09T03:28:14;100248.69;;;21.45;47.36
76603;BME280;65075;48.390;17.598;2023-07-09T03:30:42;100222.75;;;21.01;48.87
76603;BME280;65075;48.390;17.598;2023-07-09T03:33:08;100251.56;;;20.44;50.19
76603;BME280;65075;48.390;17.598;2023-07-09T03:35:34;100237.91;;;19.81;52.25
76603;BME280;65075;48.390;17.598;2023-07-09T03:38:00;100240.53;;;20.52;51.04
76603;BME280;65075;48.390;17.598;2023-07-09T03:40:26;100244.63;;;19.44;53.74
76603;BME280;65075;48.390;17.598;2023-07-09T03:42:51;100244.56;;;21.25;48.59
76603;BME280;65075;48.390;17.598;2023-07-09T03:45:17;100243.78;;;20.46;50.67
76603;BME280;65075;48.390;17.598;2023-07-09T03:47:42;100245.34;;;21.08;49.08
76603;BME280;65075;48.390;17.598;2023-07-09T03:50:09;100249.97;;;20.82;49.21
76603;BME280;65075;48.390;17.598;2023-07-09T03:52:35;100241.81;;;22.19;46.40
76603;BME280;65075;48.390;17.598;2023-07-09T03:55:01;100248.34;;;21.72;46.94
76603;BME280;65075;48.390;17.598;2023-07-09T03:57:33;100252.47;;;22.00;47.50
76603;BME280;65075;48.390;17.598;2023-07-09T03:59:59;100256.38;;;21.82;47.41
76603;BME280;65075;48.390;17.598;2023-07-09T04:02:25;100250.81;;;21.74;47.46
76603;BME280;65075;48.390;17.598;2023-07-09T04:04:50;100245.44;;;21.60;47.12
76603;BME280;65075;48.390;17.598;2023-07-09T04:07:16;100254.56;;;21.69;47.72
76603;BME280;65075;48.390;17.598;2023-07-09T04:09:42;100256.06;;;20.62;50.26
76603;BME280;65075;48.390;17.598;2023-07-09T04:12:09;100260.94;;;21.52;47.96
76603;BME280;65075;48.390;17.598;2023-07-09T04:14:35;100261.09;;;21.56;48.06
76603;BME280;65075;48.390;17.598;2023-07-09T04:17:01;100211.75;;;21.36;47.13
76603;BME280;65075;48.390;17.598;2023-07-09T04:19:27;100261.53;;;22.44;45.96
76603;BME280;65075;48.390;17.598;2023-07-09T04:21:53;100259.13;;;22.34;46.05
76603;BME280;65075;48.390;17.598;2023-07-09T04:24:19;100257.81;;;22.86;44.88
76603;BME280;65075;48.390;17.598;2023-07-09T04:26:45;100259.19;;;23.39;43.93
76603;BME280;65075;48.390;17.598;2023-07-09T04:29:11;100207.97;;;23.02;43.13
76603;BME280;65075;48.390;17.598;2023-07-09T04:31:37;100267.25;;;24.35;41.98
76603;BME280;65075;48.390;17.598;2023-07-09T04:34:04;100269.22;;;23.81;43.75
76603;BME280;65075;48.390;17.598;2023-07-09T04:36:30;100238.09;;;23.79;42.19
76603;BME280;65075;48.390;17.598;2023-07-09T04:38:56;100265.75;;;24.37;41.95
76603;BME280;65075;48.390;17.598;2023-07-09T04:41:22;100265.66;;;25.39;40.43
76603;BME280;65075;48.390;17.598;2023-07-09T04:43:48;100265.84;;;25.34;40.24
76603;BME280;65075;48.390;17.598;2023-07-09T04:46:14;100270.53;;;25.30;39.48
76603;BME280;65075;48.390;17.598;2023-07-09T04:48:40;100261.09;;;25.35;40.13
76603;BME280;65075;48.390;17.598;2023-07-09T04:51:06;100260.50;;;25.66;39.81
76603;BME280;65075;48.390;17.598;2023-07-09T04:53:31;100275.91;;;25.99;39.57
76603;BME280;65075;48.390;17.598;2023-07-09T04:55:57;100269.25;;;25.92;38.82
76603;BME280;65075;48.390;17.598;2023-07-09T04:58:23;100263.75;;;25.43;40.82
76603;BME280;65075;48.390;17.598;2023-07-09T05:00:48;100254.53;;;26.07;38.99
76603;BME280;65075;48.390;17.598;2023-07-09T05:03:18;100274.03;;;25.27;41.57
76603;BME280;65075;48.390;17.598;2023-07-09T05:05:45;100280.13;;;25.81;40.25
76603;BME280;65075;48.390;17.598;2023-07-09T05:08:12;100282.53;;;25.95;39.63
76603;BME280;65075;48.390;17.598;2023-07-09T05:10:50;100290.34;;;26.01;39.47
76603;BME280;65075;48.390;17.598;2023-07-09T05:13:17;100240.53;;;26.07;38.05
76603;BME280;65075;48.390;17.598;2023-07-09T05:15:45;100287.56;;;26.29;39.57
76603;BME280;65075;48.390;17.598;2023-07-09T05:18:15;100282.41;;;27.37;36.84
76603;BME280;65075;48.390;17.598;2023-07-09T05:20:41;100266.34;;;29.63;32.50
76603;BME280;65075;48.390;17.598;2023-07-09T05:23:10;100297.69;;;29.61;32.46
76603;BME280;65075;48.390;17.598;2023-07-09T05:25:37;100284.38;;;29.32;33.60
76603;BME280;65075;48.390;17.598;2023-07-09T05:28:03;100289.69;;;30.23;32.38
76603;BME280;65075;48.390;17.598;2023-07-09T05:30:29;100262.09;;;29.46;32.23
76603;BME280;65075;48.390;17.598;2023-07-09T05:32:54;100285.88;;;29.78;32.71
76603;BME280;65075;48.390;17.598;2023-07-09T05:35:23;100292.78;;;30.14;31.89
76603;BME280;65075;48.390;17.598;2023-07-09T05:37:54;100292.97;;;30.98;30.84
76603;BME280;65075;48.390;17.598;2023-07-09T05:40:20;100289.63;;;27.38;36.91
76603;BME280;65075;48.390;17.598;2023-07-09T05:42:46;100298.34;;;27.33;37.89
76603;BME280;65075;48.390;17.598;2023-07-09T05:45:12;100291.38;;;29.71;33.15
76603;BME280;65075;48.390;17.598;2023-07-09T05:47:37;100299.44;;;27.98;35.60
76603;BME280;65075;48.390;17.598;2023-07-09T05:50:04;100293.69;;;26.07;39.75
76603;BME280;65075;48.390;17.598;2023-07-09T05:52:29;100301.56;;;29.04;34.14
76603;BME280;65075;48.390;17.598;2023-07-09T05:54:55;100304.25;;;30.98;31.24
76603;BME280;65075;48.390;17.598;2023-07-09T05:57:21;100299.16;;;32.45;29.55
76603;BME280;65075;48.390;17.598;2023-07-09T05:59:47;100296.50;;;33.29;26.92
76603;BME280;65075;48.390;17.598;2023-07-09T06:02:15;100300.38;;;32.47;28.11
76603;BME280;65075;48.390;17.598;2023-07-09T06:04:42;100295.47;;;31.58;29.49
76603;BME280;65075;48.390;17.598;2023-07-09T06:07:08;100289.34;;;29.94;33.00
76603;BME280;65075;48.390;17.598;2023-07-09T06:09:35;100310.63;;;33.44;26.99
76603;BME280;65075;48.390;17.598;2023-07-09T06:12:01;100306.03;;;32.47;29.09
76603;BME280;65075;48.390;17.598;2023-07-09T06:14:27;100311.38;;;32.70;29.03
76603;BME280;65075;48.390;17.598;2023-07-09T06:16:53;100303.84;;;34.60;25.25
76603;BME280;65075;48.390;17.598;2023-07-09T06:19:18;100304.16;;;31.93;29.57
76603;BME280;65075;48.390;17.598;2023-07-09T06:21:44;100321.47;;;32.67;28.56
76603;BME280;65075;48.390;17.598;2023-07-09T06:24:09;100322.22;;;34.16;25.99
76603;BME280;65075;48.390;17.598;2023-07-09T06:26:35;100329.59;;;32.90;28.54
76603;BME280;65075;48.390;17.598;2023-07-09T06:29:01;100323.50;;;33.02;28.03
76603;BME280;65075;48.390;17.598;2023-07-09T06:31:26;100325.59;;;33.40;27.65
76603;BME280;65075;48.390;17.598;2023-07-09T06:33:52;100308.63;;;33.12;27.67
76603;BME280;65075;48.390;17.598;2023-07-09T06:36:19;100271.41;;;30.80;30.87
76603;BME280;65075;48.390;17.598;2023-07-09T06:38:45;100328.09;;;31.08;30.11
76603;BME280;65075;48.390;17.598;2023-07-09T06:41:12;100323.34;;;32.42;29.94
76603;BME280;65075;48.390;17.598;2023-07-09T06:43:38;100303.59;;;32.49;27.15
76603;BME280;65075;48.390;17.598;2023-07-09T06:46:06;100299.53;;;34.30;24.75
76603;BME280;65075;48.390;17.598;2023-07-09T06:48:32;100322.75;;;34.80;23.11
76603;BME280;65075;48.390;17.598;2023-07-09T06:50:59;100320.72;;;33.62;23.42
76603;BME280;65075;48.390;17.598;2023-07-09T06:53:26;100315.06;;;33.73;23.80
76603;BME280;65075;48.390;17.598;2023-07-09T06:55:53;100315.06;;;33.20;26.04
76603;BME280;65075;48.390;17.598;2023-07-09T06:58:22;100310.69;;;34.66;24.72
76603;BME280;65075;48.390;17.598;2023-07-09T07:00:49;100310.84;;;36.59;22.73
76603;BME280;65075;48.390;17.598;2023-07-09T07:03:16;100315.03;;;33.02;27.78
76603;BME280;65075;48.390;17.598;2023-07-09T07:05:45;100318.59;;;30.86;29.61
76603;BME280;65075;48.390;17.598;2023-07-09T07:08:14;100317.06;;;30.26;31.80
76603;BME280;65075;48.390;17.598;2023-07-09T07:10:40;100319.94;;;33.30;26.59
76603;BME280;65075;48.390;17.598;2023-07-09T07:13:06;100329.63;;;33.29;26.97
76603;BME280;65075;48.390;17.598;2023-07-09T07:15:32;100332.06;;;33.73;27.27
76603;BME280;65075;48.390;17.598;2023-07-09T07:17:58;100317.78;;;34.15;27.71
76603;BME280;65075;48.390;17.598;2023-07-09T07:20:24;100322.16;;;35.62;23.48
76603;BME280;65075;48.390;17.598;2023-07-09T07:22:49;100332.44;;;35.86;23.97
76603;BME280;65075;48.390;17.598;2023-07-09T07:25:15;100325.06;;;36.59;22.26
76603;BME280;65075;48.390;17.598;2023-07-09T07:27:41;100313.66;;;34.34;24.35
76603;BME280;65075;48.390;17.598;2023-07-09T07:30:07;100309.19;;;31.12;30.92
76603;BME280;65075;48.390;17.598;2023-07-09T07:32:35;100311.81;;;33.42;28.30
76603;BME280;65075;48.390;17.598;2023-07-09T07:35:01;100317.31;;;34.34;24.49
76603;BME280;65075;48.390;17.598;2023-07-09T07:37:27;100307.59;;;36.88;22.31
76603;BME280;65075;48.390;17.598;2023-07-09T07:39:53;100309.19;;;36.89;21.23
76603;BME280;65075;48.390;17.598;2023-07-09T07:42:18;100309.97;;;35.61;23.11
76603;BME280;65075;48.390;17.598;2023-07-09T07:44:45;100314.84;;;35.60;23.08
76603;BME280;65075;48.390;17.598;2023-07-09T07:47:11;100304.28;;;37.86;22.13
76603;BME280;65075;48.390;17.598;2023-07-09T07:49:37;100310.22;;;37.52;20.82
76603;BME280;65075;48.390;17.598;2023-07-09T07:52:03;100307.63;;;38.23;20.47
76603;BME280;65075;48.390;17.598;2023-07-09T07:54:30;100316.72;;;37.75;21.86
76603;BME280;65075;48.390;17.598;2023-07-09T07:56:57;100305.19;;;37.36;21.00
76603;BME280;65075;48.390;17.598;2023-07-09T07:59:23;100308.41;;;35.53;24.02
76603;BME280;65075;48.390;17.598;2023-07-09T08:01:49;100299.25;;;37.73;21.22
76603;BME280;65075;48.390;17.598;2023-07-09T08:04:15;100307.94;;;37.90;21.63
76603;BME280;65075;48.390;17.598;2023-07-09T08:06:40;100307.75;;;40.71;19.22
76603;BME280;65075;48.390;17.598;2023-07-09T08:09:06;100319.41;;;40.23;19.06
76603;BME280;65075;48.390;17.598;2023-07-09T08:11:32;100316.56;;;41.40;18.40
76603;BME280;65075;48.390;17.598;2023-07-09T08:13:58;100306.19;;;38.71;20.52
76603;BME280;65075;48.390;17.598;2023-07-09T08:16:23;100311.75;;;37.79;21.22
76603;BME280;65075;48.390;17.598;2023-07-09T08:18:49;100320.94;;;41.06;18.25
76603;BME280;65075;48.390;17.598;2023-07-09T08:21:18;100316.72;;;37.75;21.98
76603;BME280;65075;48.390;17.598;2023-07-09T08:23:44;100316.63;;;38.61;21.12
76603;BME280;65075;48.390;17.598;2023-07-09T08:26:10;100315.31;;;36.30;24.22
76603;BME280;65075;48.390;17.598;2023-07-09T08:28:37;100307.19;;;34.33;26.72
76603;BME280;65075;48.390;17.598;2023-07-09T08:31:04;100311.88;;;38.55;21.85
76603;BME280;65075;48.390;17.598;2023-07-09T08:33:30;100307.31;;;40.02;19.24
76603;BME280;65075;48.390;17.598;2023-07-09T08:35:56;100313.75;;;40.07;19.09
76603;BME280;65075;48.390;17.598;2023-07-09T08:38:22;100296.22;;;40.21;19.09
76603;BME280;65075;48.390;17.598;2023-07-09T08:40:56;100308.34;;;39.35;21.00
76603;BME280;65075;48.390;17.598;2023-07-09T08:46:49;100291.53;;;35.35;24.44
76603;BME280;65075;48.390;17.598;2023-07-09T08:49:35;100299.75;;;37.68;20.81
76603;BME280;65075;48.390;17.598;2023-07-09T08:52:10;100304.91;;;39.08;18.97
76603;BME280;65075;48.390;17.598;2023-07-09T08:54:41;100298.94;;;36.98;20.45
76603;BME280;65075;48.390;17.598;2023-07-09T08:57:19;100291.00;;;39.10;17.63
76603;BME280;65075;48.390;17.598;2023-07-09T08:59:47;100292.28;;;40.56;16.67
76603;BME280;65075;48.390;17.598;2023-07-09T09:02:35;100297.28;;;39.82;17.79
76603;BME280;65075;48.390;17.598;2023-07-09T09:05:05;100292.50;;;42.28;14.49
76603;BME280;65075;48.390;17.598;2023-07-09T09:07:43;100290.63;;;39.56;18.38
76603;BME280;65075;48.390;17.598;2023-07-09T09:10:27;100297.75;;;37.89;18.95
76603;BME280;65075;48.390;17.598;2023-07-09T09:13:13;100294.00;;;39.67;15.04
76603;BME280;65075;48.390;17.598;2023-07-09T09:15:43;100288.97;;;40.16;16.15
76603;BME280;65075;48.390;17.598;2023-07-09T09:18:27;100280.22;;;36.70;19.36
76603;BME280;65075;48.390;17.598;2023-07-09T09:21:23;100287.00;;;39.84;16.38
76603;BME280;65075;48.390;17.598;2023-07-09T09:23:53;100291.38;;;35.53;19.99
76603;BME280;65075;48.390;17.598;2023-07-09T09:26:34;100283.78;;;36.48;18.26
76603;BME280;65075;48.390;17.598;2023-07-09T09:29:00;100265.84;;;38.88;17.29
76603;BME280;65075;48.390;17.598;2023-07-09T09:31:27;100292.19;;;37.81;15.80
76603;BME280;65075;48.390;17.598;2023-07-09T09:33:54;100275.38;;;39.91;14.10
76603;BME280;65075;48.390;17.598;2023-07-09T09:36:23;100288.63;;;40.68;14.14
76603;BME280;65075;48.390;17.598;2023-07-09T09:38:49;100291.56;;;37.70;15.87
76603;BME280;65075;48.390;17.598;2023-07-09T09:41:22;100293.19;;;40.66;14.10
76603;BME280;65075;48.390;17.598;2023-07-09T09:43:51;100283.91;;;42.58;13.25
76603;BME280;65075;48.390;17.598;2023-07-09T09:46:26;100293.00;;;44.55;12.05
76603;BME280;65075;48.390;17.598;2023-07-09T09:49:00;100294.91;;;42.91;12.42
76603;BME280;65075;48.390;17.598;2023-07-09T09:51:26;100292.47;;;43.11;12.71
76603;BME280;65075;48.390;17.598;2023-07-09T09:53:59;100241.63;;;43.66;11.58
76603;BME280;65075;48.390;17.598;2023-07-09T09:56:29;100291.53;;;41.87;12.20
76603;BME280;65075;48.390;17.598;2023-07-09T09:58:57;100284.09;;;43.35;12.88
76603;BME280;65075;48.390;17.598;2023-07-09T10:01:29;100283.47;;;41.13;15.08
76603;BME280;65075;48.390;17.598;2023-07-09T10:03:57;100285.47;;;37.92;16.01
76603;BME280;65075;48.390;17.598;2023-07-09T10:06:43;100281.13;;;37.17;17.04
76603;BME280;65075;48.390;17.598;2023-07-09T10:09:47;100276.25;;;38.79;16.87
76603;BME280;65075;48.390;17.598;2023-07-09T10:15:05;100268.53;;;38.44;16.71
76603;BME280;65075;48.390;17.598;2023-07-09T10:18:06;100259.34;;;41.49;14.26
76603;BME280;65075;48.390;17.598;2023-07-09T10:20:43;100278.50;;;39.52;16.44
76603;BME280;65075;48.390;17.598;2023-07-09T10:23:42;100269.09;;;39.68;16.03
76603;BME280;65075;48.390;17.598;2023-07-09T10:26:19;100267.66;;;38.27;15.92
76603;BME280;65075;48.390;17.598;2023-07-09T10:29:36;100263.78;;;38.37;17.32
76603;BME280;65075;48.390;17.598;2023-07-09T10:35:00;100232.06;;;38.51;17.44
76603;BME280;65075;48.390;17.598;2023-07-09T10:37:48;100254.94;;;39.48;15.29
76603;BME280;65075;48.390;17.598;2023-07-09T10:40:28;100248.47;;;41.44;13.98
76603;BME280;65075;48.390;17.598;2023-07-09T10:43:00;100249.81;;;39.27;16.52
76603;BME280;65075;48.390;17.598;2023-07-09T10:45:38;100252.84;;;36.53;18.88
76603;BME280;65075;48.390;17.598;2023-07-09T10:50:52;100245.97;;;39.78;15.18
76603;BME280;65075;48.390;17.598;2023-07-09T10:54:07;100252.94;;;37.69;16.44
76603;BME280;65075;48.390;17.598;2023-07-09T10:56:34;100254.75;;;36.03;18.26
76603;BME280;65075;48.390;17.598;2023-07-09T11:01:46;100216.03;;;37.62;16.52
76603;BME280;65075;48.390;17.598;2023-07-09T11:04:31;100246.69;;;36.28;18.63
76603;BME280;65075;48.390;17.598;2023-07-09T11:07:04;100239.47;;;37.27;17.94
76603;BME280;65075;48.390;17.598;2023-07-09T11:09:35;100237.97;;;38.05;15.17
76603;BME280;65075;48.390;17.598;2023-07-09T11:12:20;100219.41;;;37.57;16.51
76603;BME280;65075;48.390;17.598;2023-07-09T11:14:59;100244.50;;;39.41;13.73
76603;BME280;65075;48.390;17.598;2023-07-09T11:17:29;100237.50;;;38.26;15.28
76603;BME280;65075;48.390;17.598;2023-07-09T11:19:58;100225.41;;;36.40;17.82
76603;BME280;65075;48.390;17.598;2023-07-09T11:22:36;100204.22;;;36.17;18.92
76603;BME280;65075;48.390;17.598;2023-07-09T11:25:11;100220.97;;;36.65;17.17
76603;BME280;65075;48.390;17.598;2023-07-09T11:27:52;100222.47;;;35.49;19.45
76603;BME280;65075;48.390;17.598;2023-07-09T11:30:27;100217.38;;;37.11;17.30
76603;BME280;65075;48.390;17.598;2023-07-09T11:33:26;100217.94;;;35.58;17.23
76603;BME280;65075;48.390;17.598;2023-07-09T11:36:13;100206.59;;;37.85;16.11
76603;BME280;65075;48.390;17.598;2023-07-09T11:38:46;100204.09;;;37.05;16.66
76603;BME280;65075;48.390;17.598;2023-07-09T11:44:29;100202.13;;;35.88;18.85
76603;BME280;65075;48.390;17.598;2023-07-09T11:47:19;100191.84;;;36.01;17.92
76603;BME280;65075;48.390;17.598;2023-07-09T11:49:59;100196.75;;;37.07;16.94
76603;BME280;65075;48.390;17.598;2023-07-09T11:52:42;100198.75;;;37.73;17.00
76603;BME280;65075;48.390;17.598;2023-07-09T11:55:36;100201.47;;;37.37;16.66
76603;BME280;65075;48.390;17.598;2023-07-09T11:58:04;100186.31;;;37.20;17.63
76603;BME280;65075;48.390;17.598;2023-07-09T12:00:40;100186.97;;;37.51;17.03
76603;BME280;65075;48.390;17.598;2023-07-09T12:03:11;100145.63;;;36.27;16.78
76603;BME280;65075;48.390;17.598;2023-07-09T12:05:41;100177.44;;;35.85;19.07
76603;BME280;65075;48.390;17.598;2023-07-09T12:08:07;100180.34;;;36.65;18.01
76603;BME280;65075;48.390;17.598;2023-07-09T12:10:36;100153.66;;;36.02;18.41
76603;BME280;65075;48.390;17.598;2023-07-09T12:13:01;100174.13;;;37.63;17.79
76603;BME280;65075;48.390;17.598;2023-07-09T12:15:29;100178.22;;;37.81;17.28
76603;BME280;65075;48.390;17.598;2023-07-09T12:17:59;100168.69;;;37.06;16.63
76603;BME280;65075;48.390;17.598;2023-07-09T12:20:35;100178.22;;;38.53;16.34
76603;BME280;65075;48.390;17.598;2023-07-09T12:25:50;100152.13;;;38.55;16.22
76603;BME280;65075;48.390;17.598;2023-07-09T12:28:19;100167.25;;;38.68;15.65
76603;BME280;65075;48.390;17.598;2023-07-09T12:30:50;100163.38;;;37.08;17.49
76603;BME280;65075;48.390;17.598;2023-07-09T12:33:17;100144.25;;;37.08;18.20
76603;BME280;65075;48.390;17.598;2023-07-09T12:35:45;100151.66;;;37.25;16.84
76603;BME280;65075;48.390;17.598;2023-07-09T12:38:18;100150.50;;;38.02;16.08
76603;BME280;65075;48.390;17.598;2023-07-09T12:40:48;100143.56;;;37.24;18.08
76603;BME280;65075;48.390;17.598;2023-07-09T12:43:24;100118.16;;;36.90;16.35
76603;BME280;65075;48.390;17.598;2023-07-09T12:45:52;100134.84;;;36.15;18.27
76603;BME280;65075;48.390;17.598;2023-07-09T12:48:24;100129.47;;;34.34;20.47
76603;BME280;65075;48.390;17.598;2023-07-09T12:50:51;100133.19;;;34.79;19.91
76603;BME280;65075;48.390;17.598;2023-07-09T12:53:19;100137.34;;;34.64;19.01
76603;BME280;65075;48.390;17.598;2023-07-09T12:55:48;100133.97;;;35.54;19.22
76603;BME280;65075;48.390;17.598;2023-07-09T12:58:21;100124.81;;;36.07;18.83
76603;BME280;65075;48.390;17.598;2023-07-09T13:00:53;100128.44;;;38.06;17.00
76603;BME280;65075;48.390;17.598;2023-07-09T13:03:27;100128.38;;;37.50;17.16
76603;BME280;65075;48.390;17.598;2023-07-09T13:06:00;100126.16;;;36.52;17.62
76603;BME280;65075;48.390;17.598;2023-07-09T13:08:29;100126.53;;;37.01;17.04
76603;BME280;65075;48.390;17.598;2023-07-09T13:10:56;100118.38;;;35.99;18.52
76603;BME280;65075;48.390;17.598;2023-07-09T13:13:23;100116.41;;;37.78;16.83